Time;durP1;ratioP1;P1;durP2;ratioP2;P2;SDS_P1;SDS_P2;PMS_P1;PMS_P2;Temp;Humidity;BMP_temperature;BMP_pressure;BME280_temperature;BME280_humidity;BME280_pressure;Samples;Min_cycle;Max_cycle;Signal;HPM_P1;HPM_P2
2022/12/29 00:01:58;;;;;;;2.80;1.38;;;;;;;5.59;100.00;97955.22;5048565;28;20083;-42
2022/12/29 00:04:25;;;;;;;1.38;0.82;;;;;;;5.58;100.00;97961.88;5043929;28;20053;-42
2022/12/29 00:06:53;;;;;;;2.30;0.90;;;;;;;5.59;100.00;97962.69;5043475;28;20042;-43
2022/12/29 00:09:20;;;;;;;3.47;0.85;;;;;;;5.60;100.00;97964.25;5044958;28;20053;-43
2022/12/29 00:12:11;;;;;;;2.55;1.83;;;;;;;5.58;100.00;97969.34;5046042;28;20467;-41
2022/12/29 00:17:23;;;;;;;4.40;0.73;;;;;;;5.55;100.00;97976.38;5046123;28;20048;-43
2022/12/29 00:36:56;;;;;;;5.97;1.10;;;;;;;5.50;100.00;97996.72;5042461;28;20041;-43
2022/12/29 00:45:25;;;;;;;3.00;1.15;;;;;;;5.48;100.00;98020.22;5051637;28;20498;-44
2022/12/29 00:47:51;;;;;;;2.25;0.77;;;;;;;5.49;100.00;98030.81;5049094;28;20132;-42
2022/12/29 00:50:18;;;;;;;3.03;0.98;;;;;;;5.48;100.00;98023.72;5051712;28;20451;-42
2022/12/29 00:52:51;;;;;;;5.88;0.95;;;;;;;5.49;100.00;98019.03;5053169;28;20055;-43
2022/12/29 00:55:38;;;;;;;4.53;1.70;;;;;;;5.49;100.00;98028.06;5053286;28;20048;-42
2022/12/29 00:58:04;;;;;;;2.00;0.75;;;;;;;5.48;100.00;98017.47;5065671;28;20040;-44
2022/12/29 01:00:31;;;;;;;4.05;0.70;;;;;;;5.48;100.00;98018.25;5054852;28;20036;-43
2022/12/29 01:02:58;;;;;;;1.60;0.75;;;;;;;5.48;100.00;98023.72;5065641;28;20040;-43
2022/12/29 01:05:25;;;;;;;3.42;1.17;;;;;;;5.48;100.00;98029.22;5053736;28;20045;-42
2022/12/29 01:07:51;;;;;;;4.70;1.00;;;;;;;5.46;100.00;98042.53;5054448;28;20053;-43
2022/12/29 01:10:18;;;;;;;2.75;0.88;;;;;;;5.46;100.00;98052.72;5048510;28;20391;-43
2022/12/29 01:12:45;;;;;;;2.53;0.80;;;;;;;5.46;100.00;98041.72;5050448;28;20600;-43
2022/12/29 01:23:31;;;;;;;3.05;0.95;;;;;;;5.40;100.00;98060.47;5044740;28;20072;-42
2022/12/29 01:26:33;;;;;;;2.28;0.70;;;;;;;5.37;100.00;98060.47;5047719;28;20037;-43
2022/12/29 01:29:34;;;;;;;4.90;0.82;;;;;;;5.38;100.00;98062.81;5050379;28;20045;-43
2022/12/29 01:32:01;;;;;;;9.20;0.93;;;;;;;5.38;100.00;98062.03;5046977;28;20047;-43
2022/12/29 01:39:05;;;;;;;4.07;1.15;;;;;;;5.35;100.00;98060.81;5052347;28;20131;-42
2022/12/29 01:42:19;;;;;;;1.42;0.98;;;;;;;5.34;100.00;98055.72;5048839;28;20048;-42
2022/12/29 01:45:03;;;;;;;10.15;2.20;;;;;;;5.34;100.00;98062.00;5053084;28;20487;-42
2022/12/29 01:47:51;;;;;;;5.65;1.02;;;;;;;5.35;100.00;98069.06;5043810;28;20467;-43
2022/12/29 01:58:05;;;;;;;3.90;0.80;;;;;;;5.32;100.00;98091.75;5047454;28;20052;-46
2022/12/29 02:01:07;;;;;;;3.80;0.55;;;;;;;5.33;100.00;98084.31;5049139;28;20044;-43
2022/12/29 02:03:35;;;;;;;4.35;1.02;;;;;;;5.32;100.00;98091.75;5057934;28;20033;-46
2022/12/29 02:06:22;;;;;;;5.53;0.82;;;;;;;5.32;100.00;98091.75;5047799;28;20068;-42
2022/12/29 02:09:12;;;;;;;6.60;1.80;;;;;;;5.32;100.00;98101.97;5045839;28;20147;-42
2022/12/29 02:12:20;;;;;;;4.60;0.80;;;;;;;5.31;100.00;98098.41;5042306;28;20079;-42
2022/12/29 02:14:59;;;;;;;3.30;2.33;;;;;;;5.30;100.00;98096.81;5052923;28;20061;-42
2022/12/29 02:17:56;;;;;;;6.85;1.20;;;;;;;5.29;100.00;98098.00;5033032;28;20041;-42
2022/12/29 02:20:34;;;;;;;5.18;0.98;;;;;;;5.29;100.00;98098.00;5026631;28;20045;-42
2022/12/29 02:23:26;;;;;;;4.88;0.57;;;;;;;5.29;100.00;98108.97;5023303;28;20041;-43
2022/12/29 02:29:53;;;;;;;5.03;0.95;;;;;;;5.26;100.00;98109.72;5033302;28;20125;-42
2022/12/29 02:32:32;;;;;;;5.43;1.30;;;;;;;5.24;100.00;98112.03;5014219;28;20049;-42
2022/12/29 02:35:33;;;;;;;4.97;0.88;;;;;;;5.25;100.00;98113.63;5031421;28;20096;-42
2022/12/29 02:38:23;;;;;;;8.32;1.05;;;;;;;5.25;100.00;98124.59;5029146;28;20049;-43
2022/12/29 02:49:10;;;;;;;4.32;0.70;;;;;;;5.26;100.00;98147.34;5031597;28;20041;-42
2022/12/29 02:55:35;;;;;;;11.48;0.90;;;;;;;5.28;100.00;98162.25;5027941;28;20029;-43
2022/12/29 03:05:41;;;;;;;10.98;1.00;;;;;;;5.32;100.00;98168.56;521346;26;20353;-45
2022/12/29 03:09:19;;;;;;;5.18;1.35;;;;;;;5.34;100.00;98159.97;5000955;28;20049;-42
2022/12/29 03:12:13;;;;;;;2.38;1.15;;;;;;;5.33;100.00;98181.13;5001069;28;20057;-42
2022/12/29 03:18:10;;;;;;;2.50;1.08;;;;;;;5.35;100.00;98194.47;5010548;28;20046;-43
2022/12/29 03:20:44;;;;;;;4.65;0.95;;;;;;;5.35;100.00;98189.75;5011911;28;20050;-43
2022/12/29 03:23:12;;;;;;;9.20;1.30;;;;;;;5.38;100.00;98210.97;5013010;28;20046;-42
2022/12/29 03:25:52;;;;;;;4.40;0.85;;;;;;;5.40;100.00;98203.16;5013683;28;20070;-42
2022/12/29 03:37:16;;;;;;;3.63;0.70;;;;;;;5.38;100.00;98227.44;5003463;28;20041;-42
2022/12/29 03:40:04;;;;;;;;;;;;;;;5.37;100.00;98242.34;5009978;28;20068;-43
2022/12/29 03:42:53;;;;;;;3.30;0.63;;;;;;;5.40;100.00;98232.56;5024374;28;19929;-42
2022/12/29 03:45:58;;;;;;;3.47;0.70;;;;;;;5.43;100.00;98257.28;5004249;28;20388;-43
2022/12/29 03:48:24;;;;;;;2.95;0.50;;;;;;;5.46;100.00;98277.69;4998902;28;20039;-42
2022/12/29 03:50:51;;;;;;;3.97;0.70;;;;;;;5.47;100.00;98263.63;5011186;28;20391;-42
2022/12/29 03:53:40;;;;;;;4.88;0.90;;;;;;;5.50;100.00;98271.13;5007027;28;20057;-42
2022/12/29 03:56:06;;;;;;;8.48;1.30;;;;;;;5.53;100.00;98278.59;5006115;28;20069;-42
2022/12/29 04:02:23;;;;;;;8.50;1.10;;;;;;;5.59;100.00;98301.00;5020005;28;20395;-44
2022/12/29 04:05:16;;;;;;;5.03;0.80;;;;;;;5.60;100.00;98296.31;5009961;28;20144;-43
2022/12/29 04:07:45;;;;;;;4.95;0.80;;;;;;;5.58;100.00;98295.91;5029581;28;20049;-43
2022/12/29 04:11:09;;;;;;;4.70;1.13;;;;;;;5.53;100.00;98281.34;5028265;28;20049;-43
2022/12/29 04:13:40;;;;;;;3.88;1.10;;;;;;;5.50;100.00;98306.78;5022168;28;20056;-42
2022/12/29 04:16:08;;;;;;;2.95;0.70;;;;;;;5.47;100.00;98313.03;5029336;28;20053;-43
2022/12/29 04:18:35;;;;;;;7.43;0.95;;;;;;;5.46;100.00;98310.63;5024409;28;20045;-43
2022/12/29 04:24:54;;;;;;;2.35;0.98;;;;;;;5.40;100.00;98301.94;5017344;28;20087;-42
2022/12/29 04:31:31;;;;;;;4.43;0.70;;;;;;;5.37;100.00;98312.88;5029198;28;20041;-43
2022/12/29 04:38:28;;;;;;;2.00;0.60;;;;;;;5.33;100.00;98318.28;5032223;28;20430;-43
2022/12/29 04:40:55;;;;;;;5.57;0.80;;;;;;;5.32;100.00;98324.94;5036354;28;20042;-44
2022/12/29 04:43:22;;;;;;;11.65;2.08;;;;;;;5.33;100.00;98329.28;5038599;28;20052;-42
2022/12/29 04:49:39;;;;;;;8.45;1.05;;;;;;;5.34;100.00;98333.59;5030318;28;20572;-43
2022/12/29 05:00:19;;;;;;;14.85;3.30;;;;;;;5.27;100.00;98346.44;5026836;28;20033;-44
2022/12/29 05:06:57;;;;;;;8.75;2.55;;;;;;;5.24;100.00;98355.38;5025889;28;20108;-43
2022/12/29 05:13:18;;;;;;;9.38;1.60;;;;;;;5.20;100.00;98366.28;5026013;28;20060;-42
2022/12/29 05:15:53;;;;;;;10.73;1.45;;;;;;;5.20;100.00;98382.75;5020298;28;20041;-42
2022/12/29 05:19:00;;;;;;;4.68;1.40;;;;;;;5.26;100.00;98383.22;5036919;28;20136;-44
2022/12/29 05:21:27;;;;;;;10.38;2.00;;;;;;;5.30;100.00;98384.88;5023925;28;20049;-42
2022/12/29 05:23:53;;;;;;;5.70;1.23;;;;;;;5.29;100.00;98386.03;5036241;28;20045;-45
2022/12/29 05:26:20;;;;;;;8.43;1.25;;;;;;;5.28;100.00;98398.16;5034593;28;20045;-43
2022/12/29 05:28:47;;;;;;;10.15;1.48;;;;;;;5.25;100.00;98393.41;5036605;28;20045;-44
2022/12/29 05:35:05;;;;;;;6.07;1.45;;;;;;;5.16;100.00;98401.13;5028241;28;20075;-42
2022/12/29 05:37:31;;;;;;;5.00;1.08;;;;;;;5.14;99.80;98386.94;5036463;28;20495;-42
2022/12/29 05:40:11;;;;;;;9.80;2.05;;;;;;;5.11;99.78;98390.41;5031498;28;20062;-43
2022/12/29 05:42:38;;;;;;;5.78;1.88;;;;;;;5.06;99.66;98385.25;5015133;28;20046;-42
2022/12/29 05:45:06;;;;;;;5.40;1.13;;;;;;;5.04;99.83;98406.75;5026421;28;20072;-44
2022/12/29 05:47:34;;;;;;;8.43;1.30;;;;;;;5.03;99.64;98412.63;5028865;28;20053;-43
2022/12/29 05:50:01;;;;;;;11.52;1.48;;;;;;;5.01;99.81;98403.94;5031811;28;20391;-43
2022/12/29 05:52:28;;;;;;;4.20;1.10;;;;;;;4.99;99.59;98418.03;5027261;28;20099;-46
2022/12/29 06:07:06;;;;;;;5.88;1.27;;;;;;;4.90;98.61;98404.56;5030061;28;20062;-43
2022/12/29 06:09:59;;;;;;;6.35;0.93;;;;;;;4.89;98.40;98402.19;5024061;28;20368;-42
2022/12/29 06:12:26;;;;;;;18.52;3.05;;;;;;;4.88;98.30;98400.59;5018543;28;20216;-43
2022/12/29 06:14:54;;;;;;;8.48;1.50;;;;;;;4.85;98.20;98413.09;5022934;28;20132;-43
2022/12/29 06:18:13;;;;;;;5.35;2.20;;;;;;;4.84;98.34;98407.97;5028521;28;20419;-42
2022/12/29 06:21:39;;;;;;;10.38;1.08;;;;;;;4.83;98.03;98409.13;5033269;28;20144;-45
2022/12/29 06:25:09;;;;;;;9.05;1.90;;;;;;;4.83;98.19;98407.19;5033422;28;20052;-45
2022/12/29 06:35:17;;;;;;;8.93;1.38;;;;;;;4.81;97.45;98422.41;5028274;28;20132;-42
2022/12/29 06:37:44;;;;;;;7.43;1.55;;;;;;;4.82;97.83;98413.00;5032563;28;20042;-43
2022/12/29 06:44:01;;;;;;;8.55;1.35;;;;;;;4.82;97.68;98419.28;5019860;28;20037;-43
2022/12/29 06:50:47;;;;;;;18.23;3.10;;;;;;;4.88;97.52;98417.03;5030455;28;20033;-43
2022/12/29 06:53:16;;;;;;;10.20;1.67;;;;;;;4.89;97.68;98418.66;5032468;28;20491;-42
2022/12/29 06:55:50;;;;;;;15.30;1.80;;;;;;;4.89;97.63;98421.38;5032662;28;20116;-43
2022/12/29 06:58:17;;;;;;;3.78;1.40;;;;;;;4.88;97.51;98428.00;5044067;28;20065;-43
2022/12/29 07:00:44;;;;;;;3.90;1.45;;;;;;;4.86;97.32;98425.66;5030651;28;20073;-43
2022/12/29 07:03:10;;;;;;;4.07;1.40;;;;;;;4.86;97.19;98447.56;5045095;28;20048;-43
2022/12/29 07:05:37;;;;;;;8.00;1.65;;;;;;;4.87;97.19;98431.94;5027600;28;20128;-43
2022/12/29 07:08:20;;;;;;;6.82;2.15;;;;;;;4.86;97.40;98427.59;5030829;28;20042;-43
2022/12/29 07:10:47;;;;;;;4.13;0.93;;;;;;;4.87;97.16;98440.16;5023851;28;20073;-42
2022/12/29 07:14:14;;;;;;;6.65;1.63;;;;;;;4.85;96.75;98450.66;5027402;28;20056;-42
2022/12/29 07:17:25;;;;;;;7.65;1.95;;;;;;;4.81;96.84;98455.31;5024035;28;20416;-44
2022/12/29 07:19:52;;;;;;;15.40;3.22;;;;;;;4.80;96.40;98476.44;5033875;28;20454;-46
2022/12/29 07:22:18;;;;;;;6.38;1.70;;;;;;;4.77;96.63;98448.94;5037090;28;20533;-42
2022/12/29 07:28:48;;;;;;;39.47;2.47;;;;;;;4.74;96.41;98468.84;5033587;28;20045;-42
2022/12/29 07:31:42;;;;;;;8.57;2.03;;;;;;;4.72;96.33;98473.91;5022816;28;20048;-42
2022/12/29 07:34:09;;;;;;;9.60;1.75;;;;;;;4.70;96.51;98459.78;5030222;28;20372;-42
2022/12/29 07:40:10;;;;;;;12.98;2.25;;;;;;;4.66;96.20;98470.66;5032171;28;20053;-44
2022/12/29 07:46:00;;;;;;;5.75;1.40;;;;;;;4.65;96.22;98484.75;5031730;28;20045;-43
2022/12/29 07:48:27;;;;;;;14.52;3.00;;;;;;;4.63;96.48;98481.56;5031308;28;20049;-44
2022/12/29 07:55:25;;;;;;;11.35;2.60;;;;;;;4.63;96.43;98489.78;5024363;28;20090;-45
2022/12/29 08:01:49;;;;;;;9.75;1.98;;;;;;;4.66;96.60;98500.03;5022083;28;20387;-42
2022/12/29 08:04:17;;;;;;;7.05;0.88;;;;;;;4.66;97.06;98502.78;5028115;28;20037;-43
2022/12/29 08:06:45;;;;;;;5.45;1.30;;;;;;;4.69;96.58;98499.28;5028859;28;20053;-45
2022/12/29 08:13:02;;;;;;;8.32;1.95;;;;;;;4.62;96.51;98501.91;5025047;28;20029;-44
2022/12/29 08:15:29;;;;;;;15.60;2.65;;;;;;;4.61;96.64;98511.25;5024815;28;20048;-44
2022/12/29 08:17:58;;;;;;;3.08;1.40;;;;;;;4.59;96.61;98502.63;5025748;28;20053;-43
2022/12/29 08:20:29;;;;;;;11.63;2.25;;;;;;;4.58;96.64;98501.81;5028213;28;20050;-44
2022/12/29 08:22:56;;;;;;;3.58;1.10;;;;;;;4.60;96.58;98509.69;5026124;28;20033;-42
2022/12/29 08:33:45;;;;;;;5.75;0.82;;;;;;;4.56;96.17;98498.66;5024182;28;20059;-43
2022/12/29 08:36:32;;;;;;;1.80;0.68;;;;;;;4.59;96.45;98499.88;5024933;28;20041;-42
2022/12/29 08:43:20;;;;;;;5.45;1.30;;;;;;;4.54;96.13;98527.56;5026674;28;20483;-42
2022/12/29 08:45:47;;;;;;;8.73;2.78;;;;;;;4.53;96.14;98493.09;5028896;28;20038;-43
2022/12/29 08:48:36;;;;;;;14.20;1.58;;;;;;;4.51;96.00;98517.31;5013465;28;20037;-42
2022/12/29 08:51:37;;;;;;;6.72;2.17;;;;;;;4.52;95.94;98524.41;5024868;28;20052;-44
2022/12/29 08:54:04;;;;;;;7.55;1.67;;;;;;;4.51;95.81;98539.22;5025591;28;20041;-45
2022/12/29 08:56:31;;;;;;;7.30;1.98;;;;;;;4.50;95.83;98519.25;5030017;28;20056;-43
2022/12/29 08:58:58;;;;;;;7.15;1.13;;;;;;;4.50;95.76;98554.09;5026775;28;20051;-43
2022/12/29 09:01:24;;;;;;;5.70;1.20;;;;;;;4.46;96.08;98542.25;5024594;28;20048;-44
2022/12/29 09:03:53;;;;;;;3.38;1.20;;;;;;;4.47;96.02;98538.38;5022517;28;20099;-42
2022/12/29 09:07:00;;;;;;;6.68;0.85;;;;;;;4.44;95.79;98550.84;5018603;28;20142;-43
2022/12/29 09:09:27;;;;;;;4.53;1.02;;;;;;;4.43;95.65;98552.00;5029752;28;20089;-44
2022/12/29 09:11:54;;;;;;;9.45;1.08;;;;;;;4.43;95.78;98581.31;5031085;28;20045;-44
2022/12/29 09:14:57;;;;;;;6.75;1.95;;;;;;;4.43;95.64;98565.69;5033318;28;20088;-46
2022/12/29 09:20:34;;;;;;;7.70;1.35;;;;;;;4.43;95.52;98603.25;5034059;28;19975;-43
2022/12/29 09:23:13;;;;;;;5.70;1.05;;;;;;;4.41;95.61;98591.84;5021778;28;20045;-45
2022/12/29 09:25:39;;;;;;;14.65;3.17;;;;;;;4.40;95.49;98601.22;5031111;28;20038;-42
2022/12/29 09:28:07;;;;;;;10.38;1.58;;;;;;;4.40;95.68;98595.72;5026978;28;20479;-43
2022/12/29 09:30:34;;;;;;;10.85;1.88;;;;;;;4.40;95.50;98595.72;5033755;28;20487;-44
2022/12/29 09:33:00;;;;;;;7.45;1.60;;;;;;;4.40;95.66;98602.00;5037499;28;20056;-46
2022/12/29 09:35:28;;;;;;;9.60;2.20;;;;;;;4.40;95.69;98610.22;5036282;28;20049;-43
2022/12/29 09:37:54;;;;;;;12.32;2.00;;;;;;;4.42;95.66;98612.63;5033707;28;20045;-43
2022/12/29 09:41:14;;;;;;;11.88;3.05;;;;;;;4.40;95.43;98612.16;5032305;28;20052;-43
2022/12/29 09:44:25;;;;;;;8.50;1.00;;;;;;;4.40;95.52;98632.16;5016605;28;20152;-43
2022/12/29 09:50:36;;;;;;;10.02;1.15;;;;;;;4.39;95.78;98624.28;5027135;28;20095;-44
2022/12/29 09:53:22;;;;;;;8.05;1.75;;;;;;;4.40;95.77;98620.38;5034426;28;20046;-42
2022/12/29 09:56:23;;;;;;;4.85;0.82;;;;;;;4.40;95.42;98629.41;5032212;28;20404;-43
2022/12/29 09:59:17;;;;;;;4.93;1.35;;;;;;;4.39;95.63;98630.56;5032219;28;20049;-45
2022/12/29 10:02:16;;;;;;;6.82;1.48;;;;;;;4.39;95.80;98635.25;5032877;28;20041;-43
2022/12/29 10:05:04;;;;;;;3.40;1.27;;;;;;;4.41;95.72;98647.44;5031464;28;20632;-43
2022/12/29 10:12:32;;;;;;;6.28;0.90;;;;;;;4.48;95.63;98646.81;5001495;28;20499;-44
2022/12/29 10:15:26;;;;;;;1.30;0.80;;;;;;;4.47;95.75;98662.47;5001785;28;20483;-44
2022/12/29 10:18:14;;;;;;;5.00;0.82;;;;;;;4.50;95.65;98660.97;5014727;28;20048;-43
2022/12/29 10:21:12;;;;;;;5.85;1.55;;;;;;;4.51;95.94;98677.03;5013367;28;20049;-42
2022/12/29 10:32:17;;;;;;;6.28;2.25;;;;;;;4.72;95.81;98676.72;5003226;28;20404;-44
2022/12/29 10:34:58;;;;;;;10.50;2.20;;;;;;;4.75;96.04;98684.25;5012475;28;20498;-43
2022/12/29 10:38:01;;;;;;;14.25;2.95;;;;;;;4.83;95.79;98689.53;5012625;28;20042;-43
2022/12/29 10:40:54;;;;;;;6.32;1.60;;;;;;;4.92;95.88;98701.09;5007982;28;20100;-42
2022/12/29 10:43:39;;;;;;;;;;;;;;;4.95;96.05;98701.56;5001764;28;20052;-43
2022/12/29 10:46:10;;;;;;;12.45;2.38;;;;;;;5.01;96.33;98703.63;5013393;28;20367;-44
2022/12/29 10:48:58;;;;;;;5.40;1.08;;;;;;;5.07;96.25;98704.97;5002163;28;20053;-44
2022/12/29 10:51:29;;;;;;;6.40;1.67;;;;;;;5.13;96.10;98709.03;5012431;28;20488;-43
2022/12/29 10:53:59;;;;;;;7.47;1.25;;;;;;;5.18;96.19;98732.63;5028105;28;20108;-44
2022/12/29 10:56:40;;;;;;;4.25;1.40;;;;;;;5.18;96.31;98719.72;5010717;28;20494;-44
2022/12/29 10:59:25;;;;;;;8.55;1.20;;;;;;;5.17;96.43;98704.41;5013907;28;20104;-46
2022/12/29 11:14:17;;;;;;;7.00;2.03;;;;;;;5.45;96.43;98732.44;5006893;28;20069;-47
2022/12/29 11:16:56;;;;;;;9.23;3.17;;;;;;;5.54;96.23;98733.03;5027450;28;20084;-43
2022/12/29 11:19:27;;;;;;;6.63;1.58;;;;;;;5.57;96.03;98750.72;5029639;28;20145;-45
2022/12/29 11:21:54;;;;;;;2.20;0.85;;;;;;;5.54;96.26;98751.44;5031613;28;20041;-44
2022/12/29 11:25:01;;;;;;;4.15;0.80;;;;;;;5.48;96.25;98745.44;5032291;28;20047;-46
2022/12/29 11:27:39;;;;;;;10.48;2.45;;;;;;;5.37;96.21;98758.16;5032349;28;20049;-43
2022/12/29 11:31:04;;;;;;;2.00;1.27;;;;;;;5.29;96.41;98772.06;5030229;28;20495;-43
2022/12/29 11:36:43;;;;;;;5.95;0.93;;;;;;;5.25;96.53;98771.97;5030355;28;20047;-44
2022/12/29 11:39:25;;;;;;;6.85;0.70;;;;;;;5.22;96.57;98775.44;5032004;28;20074;-45
2022/12/29 11:41:53;;;;;;;2.15;0.55;;;;;;;5.20;96.50;98769.50;5022068;28;20450;-48
2022/12/29 11:44:20;;;;;;;2.13;0.73;;;;;;;5.19;96.32;98778.88;5028093;28;20042;-43
2022/12/29 11:46:51;;;;;;;11.55;2.15;;;;;;;5.18;96.46;98774.56;5028625;28;20076;-43
2022/12/29 11:49:41;;;;;;;6.93;0.85;;;;;;;5.17;96.31;98786.69;5027173;28;20471;-44
2022/12/29 11:56:04;;;;;;;4.47;0.60;;;;;;;5.17;96.12;98799.59;5018400;28;20458;-45
2022/12/29 11:58:34;;;;;;;1.45;0.70;;;;;;;5.15;96.00;98819.16;5028726;28;20045;-42
2022/12/29 12:01:06;;;;;;;1.42;0.98;;;;;;;5.15;96.06;98821.09;5031756;28;20379;-41
2022/12/29 12:03:37;;;;;;;4.90;0.63;;;;;;;5.17;96.09;98808.63;5042961;28;20105;-42
2022/12/29 12:06:08;;;;;;;7.50;1.35;;;;;;;5.17;96.06;98797.66;5031461;28;20056;-42
2022/12/29 12:08:53;;;;;;;2.25;0.55;;;;;;;5.17;95.85;98805.88;5031008;28;20399;-42
2022/12/29 12:11:36;;;;;;;2.42;0.77;;;;;;;5.19;95.90;98811.81;5030406;28;20501;-44
2022/12/29 12:14:19;;;;;;;1.58;0.40;;;;;;;5.21;95.68;98811.47;5029501;28;20057;-42
2022/12/29 12:17:03;;;;;;;3.60;0.73;;;;;;;5.23;95.62;98809.94;5031206;28;20137;-42
2022/12/29 12:19:42;;;;;;;5.40;0.90;;;;;;;5.25;95.59;98831.53;5029529;28;20051;-43
2022/12/29 12:22:45;;;;;;;1.48;0.82;;;;;;;5.24;95.57;98824.47;5031170;28;20055;-42
2022/12/29 12:25:21;;;;;;;1.35;0.52;;;;;;;5.25;95.08;98818.63;5029202;28;20376;-42
2022/12/29 12:28:02;;;;;;;2.13;0.93;;;;;;;5.28;95.27;98815.16;5030769;28;20053;-42
2022/12/29 12:30:41;;;;;;;4.55;0.90;;;;;;;5.31;95.41;98828.16;5031930;28;20054;-47
2022/12/29 12:33:30;;;;;;;5.25;2.65;;;;;;;5.33;95.35;98823.13;5030825;28;20107;-42
2022/12/29 12:39:25;;;;;;;2.63;1.33;;;;;;;5.41;95.41;98835.03;5030256;28;20453;-42
2022/12/29 12:42:18;;;;;;;8.23;1.45;;;;;;;5.47;95.61;98839.13;5028012;28;20053;-43
2022/12/29 12:44:56;;;;;;;5.18;1.92;;;;;;;5.51;95.22;98843.53;5030070;28;20053;-42
2022/12/29 12:47:51;;;;;;;7.53;1.42;;;;;;;5.57;95.35;98843.25;5030409;28;20156;-42
2022/12/29 12:50:38;;;;;;;3.58;1.50;;;;;;;5.63;95.50;98863.78;5033659;28;20076;-36
2022/12/29 12:53:24;;;;;;;6.45;1.00;;;;;;;5.72;95.24;98856.16;5034974;28;20053;-42
2022/12/29 12:56:29;;;;;;;5.32;1.48;;;;;;;5.81;94.78;98853.97;5033603;28;20136;-41
2022/12/29 12:59:43;;;;;;;3.88;1.00;;;;;;;5.82;94.68;98861.06;5026238;28;20046;-42
2022/12/29 13:02:10;;;;;;;2.28;1.45;;;;;;;5.80;94.35;98863.38;5030763;28;20144;-42
2022/12/29 13:04:47;;;;;;;2.33;1.13;;;;;;;5.78;94.54;98860.19;5036528;28;20046;-39
2022/12/29 13:07:37;;;;;;;6.25;2.33;;;;;;;5.77;94.57;98858.59;5034232;28;20056;-45
2022/12/29 13:10:40;;;;;;;7.15;2.95;;;;;;;5.86;94.52;98889.41;5034332;28;20057;-44
2022/12/29 13:13:29;;;;;;;22.90;9.15;;;;;;;5.92;94.29;98885.25;5034096;28;20045;-45
2022/12/29 13:16:30;;;;;;;28.77;9.05;;;;;;;5.92;94.18;98891.53;5033516;28;20088;-45
2022/12/29 13:19:34;;;;;;;15.68;5.70;;;;;;;5.92;94.13;98893.50;5031930;28;20049;-45
2022/12/29 13:22:36;;;;;;;13.30;4.97;;;;;;;5.90;94.21;98901.28;5033588;28;20045;-45
2022/12/29 13:25:29;;;;;;;30.90;14.13;;;;;;;5.86;94.10;98919.63;5024994;28;20129;-44
2022/12/29 13:28:18;;;;;;;6.70;2.58;;;;;;;5.84;94.10;98905.44;5021700;28;20049;-47
2022/12/29 13:31:14;;;;;;;3.30;2.30;;;;;;;5.77;93.83;98919.00;5034387;28;20041;-45
2022/12/29 13:33:46;;;;;;;11.98;3.33;;;;;;;5.71;93.85;98931.41;5034361;28;20038;-46
2022/12/29 13:36:28;;;;;;;9.73;3.95;;;;;;;5.66;93.58;98931.69;5032059;28;20071;-45
2022/12/29 13:39:21;;;;;;;7.47;3.30;;;;;;;5.61;93.31;98937.47;5020967;28;20052;-45
2022/12/29 13:41:53;;;;;;;12.02;4.75;;;;;;;5.61;93.45;98945.69;5032941;28;20057;-45
2022/12/29 13:45:05;;;;;;;10.15;5.25;;;;;;;5.65;93.40;98961.09;5034005;28;20510;-46
2022/12/29 13:47:41;;;;;;;4.05;1.90;;;;;;;5.69;93.23;98942.78;5023328;28;20065;-45
2022/12/29 13:50:18;;;;;;;11.98;6.57;;;;;;;5.74;92.91;98958.16;5034619;28;20048;-47
2022/12/29 13:53:09;;;;;;;7.00;3.08;;;;;;;5.82;93.09;98963.47;5032231;28;20438;-46
2022/12/29 13:55:48;;;;;;;3.33;2.17;;;;;;;5.89;92.91;98969.16;5020731;28;20224;-49
2022/12/29 13:58:24;;;;;;;5.32;2.85;;;;;;;5.92;92.54;98971.19;5042489;28;20395;-51
2022/12/29 14:01:02;;;;;;;1.92;1.55;;;;;;;5.91;92.12;98968.78;5020482;28;20422;-49
2022/12/29 14:04:07;;;;;;;6.70;2.20;;;;;;;5.88;91.96;98973.03;5033651;28;20073;-46
2022/12/29 14:14:31;;;;;;;4.95;2.05;;;;;;;5.82;91.26;98982.69;5023237;28;20042;-46
2022/12/29 14:17:14;;;;;;;4.03;1.40;;;;;;;5.80;90.96;98984.97;5032492;28;20048;-49
2022/12/29 14:19:44;;;;;;;3.40;1.38;;;;;;;5.81;90.97;98978.34;5027367;28;20052;-45
2022/12/29 14:23:20;;;;;;;3.70;2.03;;;;;;;5.80;90.74;98978.72;5023619;28;20076;-46
2022/12/29 14:26:12;;;;;;;4.47;1.23;;;;;;;5.74;90.16;98991.13;5025259;28;20412;-48
2022/12/29 14:28:47;;;;;;;3.67;1.98;;;;;;;5.70;90.27;98985.53;5028983;28;20092;-47
2022/12/29 14:31:29;;;;;;;2.67;1.80;;;;;;;5.64;89.95;98992.44;5028055;28;20041;-47
2022/12/29 14:34:11;;;;;;;6.30;2.27;;;;;;;5.60;90.00;99001.72;5030704;28;20477;-50
2022/12/29 14:43:59;;;;;;;5.00;1.10;;;;;;;5.32;89.65;98991.63;5035241;28;20407;-48
2022/12/29 14:46:58;;;;;;;4.28;1.45;;;;;;;5.28;89.78;99003.66;5031216;28;20141;-48
2022/12/29 14:49:33;;;;;;;5.45;2.00;;;;;;;5.22;89.67;99014.09;5028550;28;20050;-50
2022/12/29 14:52:23;;;;;;;5.15;2.28;;;;;;;5.19;89.86;99009.31;5021759;28;20077;-47
2022/12/29 14:54:52;;;;;;;5.32;1.85;;;;;;;5.17;90.03;99011.63;5030489;28;20037;-48
2022/12/29 14:58:06;;;;;;;4.82;2.08;;;;;;;5.16;89.79;99017.47;5043214;28;20049;-46
2022/12/29 15:01:39;;;;;;;3.60;2.03;;;;;;;5.13;89.92;99010.75;5026898;28;20037;-49
2022/12/29 15:04:18;;;;;;;5.38;2.03;;;;;;;5.13;89.97;99018.97;5028917;28;20045;-51
2022/12/29 15:14:59;;;;;;;9.18;2.25;;;;;;;5.04;89.91;99023.81;5016970;28;20496;-49
2022/12/29 15:17:27;;;;;;;3.88;1.58;;;;;;;5.02;90.16;99028.84;5001321;28;20048;-47
2022/12/29 15:19:56;;;;;;;1.80;1.17;;;;;;;5.00;89.92;99033.09;4985316;28;20046;-49
2022/12/29 15:23:10;;;;;;;2.30;0.82;;;;;;;4.98;90.15;99019.72;4990865;28;20038;-48
2022/12/29 15:26:11;;;;;;;2.20;1.60;;;;;;;4.94;89.97;99018.81;4992659;28;20066;-51
2022/12/29 15:36:03;;;;;;;3.63;1.33;;;;;;;4.85;90.19;99029.13;4989421;28;20077;-48
2022/12/29 15:38:31;;;;;;;5.50;1.60;;;;;;;4.83;90.34;99039.66;4978422;28;20069;-46
2022/12/29 15:42:03;;;;;;;5.78;3.55;;;;;;;4.79;90.22;99042.28;4992813;28;20049;-49
2022/12/29 15:44:41;;;;;;;11.73;4.63;;;;;;;4.74;90.27;99059.00;5009165;28;20058;-47
2022/12/29 15:48:15;;;;;;;5.35;2.40;;;;;;;4.70;90.59;99057.28;4988936;28;20058;-49
2022/12/29 15:50:43;;;;;;;17.85;6.35;;;;;;;4.66;90.87;99056.41;4990190;28;20097;-47
2022/12/29 15:53:27;;;;;;;5.63;2.80;;;;;;;4.63;90.73;99063.34;4977362;28;20034;-47
2022/12/29 15:56:01;;;;;;;7.70;2.83;;;;;;;4.62;91.06;99066.44;4988862;28;20050;-51
2022/12/29 15:58:30;;;;;;;11.18;4.05;;;;;;;4.59;90.89;99072.63;5000457;28;20535;-49
2022/12/29 16:01:04;;;;;;;5.90;2.30;;;;;;;4.58;91.13;99060.84;4982908;28;20133;-47
2022/12/29 16:07:54;;;;;;;13.65;3.15;;;;;;;4.52;91.55;99072.41;4983747;28;20391;-48
2022/12/29 16:10:35;;;;;;;9.23;4.72;;;;;;;4.50;91.66;99063.75;4961788;28;20046;-47
2022/12/29 16:13:30;;;;;;;94.85;36.10;;;;;;;4.48;91.50;99057.78;4985492;28;20452;-48
2022/12/29 16:16:16;;;;;;;31.50;11.30;;;;;;;4.48;91.48;99061.34;5006768;28;20100;-46
2022/12/29 16:18:44;;;;;;;11.02;6.47;;;;;;;4.47;91.97;99058.97;5029182;28;20120;-48
2022/12/29 16:25:51;;;;;;;15.82;4.57;;;;;;;4.46;92.03;99076.53;5024103;28;20468;-48
2022/12/29 16:28:25;;;;;;;9.40;4.30;;;;;;;4.46;91.97;99076.53;5032320;28;20099;-47
2022/12/29 16:31:23;;;;;;;10.40;3.17;;;;;;;4.45;92.11;99081.22;5031266;28;20045;-47
2022/12/29 16:34:31;;;;;;;8.98;3.85;;;;;;;4.46;92.13;99096.50;5013995;28;20049;-47
2022/12/29 16:37:22;;;;;;;5.80;3.15;;;;;;;4.47;92.04;99097.31;5014990;28;20068;-48
2022/12/29 16:40:20;;;;;;;6.05;2.50;;;;;;;4.48;92.29;99099.69;5013252;28;20051;-49
2022/12/29 16:43:34;;;;;;;9.45;3.45;;;;;;;4.48;92.39;99098.91;5029373;28;20084;-50
2022/12/29 16:46:29;;;;;;;6.95;3.30;;;;;;;4.47;92.44;99119.25;5025896;28;20387;-49
2022/12/29 16:49:14;;;;;;;13.57;4.07;;;;;;;4.47;92.47;99122.78;5018420;28;20132;-47
2022/12/29 16:51:47;;;;;;;17.27;8.93;;;;;;;4.47;92.61;99124.72;5027514;28;20076;-48
2022/12/29 16:54:57;;;;;;;21.40;9.40;;;;;;;4.48;92.76;99132.59;5026141;28;20395;-49
2022/12/29 16:57:31;;;;;;;10.35;5.82;;;;;;;4.49;92.63;99125.16;5036724;28;20072;-47
2022/12/29 17:00:30;;;;;;;12.10;4.32;;;;;;;4.47;92.70;99125.53;5023134;28;20060;-49
2022/12/29 17:03:45;;;;;;;19.80;9.95;;;;;;;4.45;93.15;99130.53;5025986;28;20111;-51
2022/12/29 17:06:16;;;;;;;14.60;5.60;;;;;;;4.43;93.21;99130.09;5023803;28;20124;-47
2022/12/29 17:09:01;;;;;;;9.43;4.13;;;;;;;4.42;93.22;99128.47;5027224;28;20060;-50
2022/12/29 17:14:44;;;;;;;12.25;6.00;;;;;;;4.41;93.51;99137.06;5029158;28;20042;-48
2022/12/29 17:17:19;;;;;;;17.92;7.00;;;;;;;4.41;93.52;99145.25;5019591;28;20137;-47